ROMMA est une association bénévole à but non lucratif. Votre soutien est indispensable : ADHERER à ROMMA ou FAIRE un DON

Briord - (01, Ain)

Bugey (281 m)   Longitude: 05° 29' 13" E   Latitude: 45° 46' 37" N Station partenaire n°15
 

Détail journalier du     <<     >>

Température Precipitation Humidité Pression Vent Dir Rafale Dir. rafale Ensol.
Heure (°C) (mm) (%) (hPa) (km/h) (km/h) (min)
01:00 24.20631020010E0
02:00 21.407110211---8NE0
03:00 20.5074102100---0
04:00 20.6074102105NNE0
05:00 19.4077102105E0
06:00 18.9080102100---0
07:00 18.4083102100---0
08:00 18.2085102200---0
09:00 18.1087102200---0
10:00 19.2087102200---0
11:00 23.2075102206O0
12:00 25.206810221ONO6O0
13:00 27.005910221O10O0
14:00 29.405610223NO15O25
15:00 30.605510216NO16NNO55
16:00 32.104810215O19O60
17:00 33.604510204O15NO60
18:00 34.304310195NO21ONO60
19:00 34.604210196NO19N60
20:00 35.103910195ONO19NNO60
21:00 34.104210183ONO16NO55
22:00 33.204310182NO15ONO0
23:00 29.5055101908NO0
minuit 26.106210191NNE15NE0

Graphique du 22-07-2019

 

Serveur OMMA